sensor_id;sensor_type;location;lat;lon;timestamp;pressure;altitude;pressure_sealevel;temperature;humidity
10482;BME280;5288;42.334;23.876;2022-12-18T00:01:15;56569.22;;;-140.56;85.80
10482;BME280;5288;42.334;23.876;2022-12-18T00:03:44;56531.66;;;-140.56;86.22
10482;BME280;5288;42.334;23.876;2022-12-18T00:06:11;56557.34;;;-140.56;85.53
10482;BME280;5288;42.334;23.876;2022-12-18T00:08:39;56537.59;;;-140.56;85.40
10482;BME280;5288;42.334;23.876;2022-12-18T00:11:06;56555.38;;;-140.56;85.48
10482;BME280;5288;42.334;23.876;2022-12-18T00:13:34;56573.16;;;-140.56;85.23
10482;BME280;5288;42.334;23.876;2022-12-18T00:16:02;56527.72;;;-140.56;85.46
10482;BME280;5288;42.334;23.876;2022-12-18T00:18:29;56521.78;;;-140.56;85.24
10482;BME280;5288;42.334;23.876;2022-12-18T00:21:00;56569.22;;;-140.56;85.33
10482;BME280;5288;42.334;23.876;2022-12-18T00:23:27;56533.63;;;-140.56;85.45
10482;BME280;5288;42.334;23.876;2022-12-18T00:25:54;56545.50;;;-140.56;85.38
10482;BME280;5288;42.334;23.876;2022-12-18T00:28:21;56557.34;;;-140.56;86.11
10482;BME280;5288;42.334;23.876;2022-12-18T00:30:48;56573.16;;;-140.56;85.82
10482;BME280;5288;42.334;23.876;2022-12-18T00:33:16;56565.25;;;-140.56;85.87
10482;BME280;5288;42.334;23.876;2022-12-18T00:35:43;56515.84;;;-140.56;85.58
10482;BME280;5288;42.334;23.876;2022-12-18T00:38:12;56541.53;;;-140.56;85.22
10482;BME280;5288;42.334;23.876;2022-12-18T00:40:39;56529.69;;;-140.56;84.99
10482;BME280;5288;42.334;23.876;2022-12-18T00:43:06;56551.41;;;-140.56;85.01
10482;BME280;5288;42.334;23.876;2022-12-18T00:45:35;56541.53;;;-140.56;84.71
10482;BME280;5288;42.334;23.876;2022-12-18T00:48:02;56551.41;;;-140.56;84.94
10482;BME280;5288;42.334;23.876;2022-12-18T00:50:29;56539.56;;;-140.56;84.55
10482;BME280;5288;42.334;23.876;2022-12-18T00:52:56;56535.59;;;-140.56;84.72
10482;BME280;5288;42.334;23.876;2022-12-18T00:55:24;56513.88;;;-140.56;84.79
10482;BME280;5288;42.334;23.876;2022-12-18T00:57:51;56571.19;;;-140.56;84.17
10482;BME280;5288;42.334;23.876;2022-12-18T01:00:18;56547.47;;;-140.56;84.03
10482;BME280;5288;42.334;23.876;2022-12-18T01:02:45;56511.91;;;-140.56;83.46
10482;BME280;5288;42.334;23.876;2022-12-18T01:05:13;56569.22;;;-140.56;83.50
10482;BME280;5288;42.334;23.876;2022-12-18T01:07:40;56547.47;;;-140.56;84.05
10482;BME280;5288;42.334;23.876;2022-12-18T01:10:09;56571.19;;;-140.56;83.74
10482;BME280;5288;42.334;23.876;2022-12-18T01:12:39;56525.72;;;-140.56;83.22
10482;BME280;5288;42.334;23.876;2022-12-18T01:15:07;56563.28;;;-140.56;83.25
10482;BME280;5288;42.334;23.876;2022-12-18T01:17:34;56563.28;;;-140.56;83.24
10482;BME280;5288;42.334;23.876;2022-12-18T01:20:02;56539.56;;;-140.56;82.34
10482;BME280;5288;42.334;23.876;2022-12-18T01:22:29;56559.31;;;-140.56;82.31
10482;BME280;5288;42.334;23.876;2022-12-18T01:25:03;56535.59;;;-140.56;82.40
10482;BME280;5288;42.334;23.876;2022-12-18T01:27:32;56525.72;;;-140.56;82.16
10482;BME280;5288;42.334;23.876;2022-12-18T01:30:01;56565.25;;;-140.56;81.48
10482;BME280;5288;42.334;23.876;2022-12-18T01:32:29;56543.50;;;-140.56;81.49
10482;BME280;5288;42.334;23.876;2022-12-18T01:34:57;56575.13;;;-140.56;81.57
10482;BME280;5288;42.334;23.876;2022-12-18T01:37:24;56533.63;;;-140.56;81.24
10482;BME280;5288;42.334;23.876;2022-12-18T01:39:52;56559.31;;;-140.56;81.42
10482;BME280;5288;42.334;23.876;2022-12-18T01:42:20;56539.56;;;-140.56;81.27
10482;BME280;5288;42.334;23.876;2022-12-18T01:44:54;56569.22;;;-140.56;80.94
10482;BME280;5288;42.334;23.876;2022-12-18T01:47:27;56559.31;;;-140.56;80.85
10482;BME280;5288;42.334;23.876;2022-12-18T01:49:57;56553.41;;;-140.56;80.69
10482;BME280;5288;42.334;23.876;2022-12-18T01:52:26;56571.19;;;-140.56;81.09
10482;BME280;5288;42.334;23.876;2022-12-18T01:54:55;56559.31;;;-140.56;80.88
10482;BME280;5288;42.334;23.876;2022-12-18T01:57:24;56525.72;;;-140.56;81.08
10482;BME280;5288;42.334;23.876;2022-12-18T01:59:52;56555.38;;;-140.56;80.61
10482;BME280;5288;42.334;23.876;2022-12-18T02:02:21;56559.31;;;-140.56;80.01
10482;BME280;5288;42.334;23.876;2022-12-18T02:04:50;56585.03;;;-140.56;80.21
10482;BME280;5288;42.334;23.876;2022-12-18T02:07:20;56579.09;;;-140.56;79.79
10482;BME280;5288;42.334;23.876;2022-12-18T02:09:58;56559.31;;;-140.56;80.11
10482;BME280;5288;42.334;23.876;2022-12-18T02:12:32;56549.44;;;-140.56;79.57
10482;BME280;5288;42.334;23.876;2022-12-18T02:15:07;56553.41;;;-140.56;79.57
10482;BME280;5288;42.334;23.876;2022-12-18T02:17:39;56569.22;;;-140.56;79.05
10482;BME280;5288;42.334;23.876;2022-12-18T02:20:14;56553.41;;;-140.56;79.15
10482;BME280;5288;42.334;23.876;2022-12-18T02:22:50;56557.34;;;-140.56;79.60
10482;BME280;5288;42.334;23.876;2022-12-18T02:25:32;56585.03;;;-140.56;79.09
10482;BME280;5288;42.334;23.876;2022-12-18T02:28:09;56565.25;;;-140.56;79.04
10482;BME280;5288;42.334;23.876;2022-12-18T02:30:39;56590.94;;;-140.56;79.19
10482;BME280;5288;42.334;23.876;2022-12-18T02:33:08;56575.13;;;-140.56;79.24
10482;BME280;5288;42.334;23.876;2022-12-18T02:35:38;56590.94;;;-140.56;79.33
10482;BME280;5288;42.334;23.876;2022-12-18T02:38:07;56543.50;;;-140.56;79.31
10482;BME280;5288;42.334;23.876;2022-12-18T02:40:34;56553.41;;;-140.56;79.66
10482;BME280;5288;42.334;23.876;2022-12-18T02:43:08;56585.03;;;-140.56;79.49
10482;BME280;5288;42.334;23.876;2022-12-18T02:45:35;56545.50;;;-140.56;79.41
10482;BME280;5288;42.334;23.876;2022-12-18T02:48:02;56575.13;;;-140.56;79.68
10482;BME280;5288;42.334;23.876;2022-12-18T02:50:36;56549.44;;;-140.56;79.44
10482;BME280;5288;42.334;23.876;2022-12-18T02:53:10;56577.13;;;-140.56;79.07
10482;BME280;5288;42.334;23.876;2022-12-18T02:55:51;56577.13;;;-140.56;79.08
10482;BME280;5288;42.334;23.876;2022-12-18T02:58:28;56598.84;;;-140.56;79.36
10482;BME280;5288;42.334;23.876;2022-12-18T03:00:59;56610.72;;;-140.56;79.21
10482;BME280;5288;42.334;23.876;2022-12-18T03:03:31;56551.41;;;-140.56;79.46
10482;BME280;5288;42.334;23.876;2022-12-18T03:06:03;56533.63;;;-140.56;80.28
10482;BME280;5288;42.334;23.876;2022-12-18T03:08:34;56563.28;;;-140.56;80.00
10482;BME280;5288;42.334;23.876;2022-12-18T03:11:05;56567.22;;;-140.56;80.08
10482;BME280;5288;42.334;23.876;2022-12-18T03:13:38;56571.19;;;-140.56;80.25
10482;BME280;5288;42.334;23.876;2022-12-18T03:16:10;56590.94;;;-140.56;80.11
10482;BME280;5288;42.334;23.876;2022-12-18T03:18:39;56563.28;;;-140.56;79.41
10482;BME280;5288;42.334;23.876;2022-12-18T03:21:10;56596.88;;;-140.56;79.78
10482;BME280;5288;42.334;23.876;2022-12-18T03:23:40;56567.22;;;-140.56;80.26
10482;BME280;5288;42.334;23.876;2022-12-18T03:26:11;56598.84;;;-140.56;79.67
10482;BME280;5288;42.334;23.876;2022-12-18T03:28:45;56606.75;;;-140.56;79.07
10482;BME280;5288;42.334;23.876;2022-12-18T03:31:14;56604.78;;;-140.56;78.36
10482;BME280;5288;42.334;23.876;2022-12-18T03:33:43;56581.06;;;-140.56;78.30
10482;BME280;5288;42.334;23.876;2022-12-18T03:36:13;56620.59;;;-140.56;78.06
10482;BME280;5288;42.334;23.876;2022-12-18T03:38:40;56590.94;;;-140.56;78.86
10482;BME280;5288;42.334;23.876;2022-12-18T03:41:13;56608.75;;;-140.56;78.72
10482;BME280;5288;42.334;23.876;2022-12-18T03:43:49;56592.94;;;-140.56;78.59
10482;BME280;5288;42.334;23.876;2022-12-18T03:46:25;56573.16;;;-140.56;77.98
10482;BME280;5288;42.334;23.876;2022-12-18T03:49:01;56600.84;;;-140.56;78.17
10482;BME280;5288;42.334;23.876;2022-12-18T03:51:36;56583.03;;;-140.56;77.78
10482;BME280;5288;42.334;23.876;2022-12-18T03:54:08;56571.19;;;-140.56;77.65
10482;BME280;5288;42.334;23.876;2022-12-18T03:56:39;56585.03;;;-140.56;77.90
10482;BME280;5288;42.334;23.876;2022-12-18T03:59:10;56585.03;;;-140.56;77.79
10482;BME280;5288;42.334;23.876;2022-12-18T04:01:40;56598.84;;;-140.56;77.55
10482;BME280;5288;42.334;23.876;2022-12-18T04:04:10;56567.22;;;-140.56;77.88
10482;BME280;5288;42.334;23.876;2022-12-18T04:06:40;56620.59;;;-140.56;77.94
10482;BME280;5288;42.334;23.876;2022-12-18T04:09:07;56606.75;;;-140.56;78.09
10482;BME280;5288;42.334;23.876;2022-12-18T04:11:34;56610.72;;;-140.56;77.55
10482;BME280;5288;42.334;23.876;2022-12-18T04:14:01;56571.19;;;-140.56;77.85
10482;BME280;5288;42.334;23.876;2022-12-18T04:16:30;56600.84;;;-140.56;77.58
10482;BME280;5288;42.334;23.876;2022-12-18T04:18:57;56610.72;;;-140.56;77.09
10482;BME280;5288;42.334;23.876;2022-12-18T04:21:24;56598.84;;;-140.56;77.23
10482;BME280;5288;42.334;23.876;2022-12-18T04:23:51;56596.88;;;-140.56;77.33
10482;BME280;5288;42.334;23.876;2022-12-18T04:26:18;56628.50;;;-140.56;76.96
10482;BME280;5288;42.334;23.876;2022-12-18T04:28:45;56594.91;;;-140.56;77.11
10482;BME280;5288;42.334;23.876;2022-12-18T04:31:13;56616.66;;;-140.56;77.37
10482;BME280;5288;42.334;23.876;2022-12-18T04:33:41;56585.03;;;-140.56;77.62
10482;BME280;5288;42.334;23.876;2022-12-18T04:36:08;56600.84;;;-140.56;77.71
10482;BME280;5288;42.334;23.876;2022-12-18T04:38:35;56608.75;;;-140.56;77.95
10482;BME280;5288;42.334;23.876;2022-12-18T04:41:02;56614.66;;;-140.56;77.28
10482;BME280;5288;42.334;23.876;2022-12-18T04:43:28;56604.78;;;-140.56;77.18
10482;BME280;5288;42.334;23.876;2022-12-18T04:46:01;56575.13;;;-140.56;77.33
10482;BME280;5288;42.334;23.876;2022-12-18T04:48:28;56600.84;;;-140.56;76.81
10482;BME280;5288;42.334;23.876;2022-12-18T04:50:57;56596.88;;;-140.56;76.96
10482;BME280;5288;42.334;23.876;2022-12-18T04:53:24;56610.72;;;-140.56;76.16
10482;BME280;5288;42.334;23.876;2022-12-18T04:55:51;56587.00;;;-140.56;76.42
10482;BME280;5288;42.334;23.876;2022-12-18T04:58:28;56569.22;;;-140.56;76.49
10482;BME280;5288;42.334;23.876;2022-12-18T05:00:55;56600.84;;;-140.56;76.19
10482;BME280;5288;42.334;23.876;2022-12-18T05:03:22;56575.13;;;-140.56;76.34
10482;BME280;5288;42.334;23.876;2022-12-18T05:05:49;56594.91;;;-140.56;75.80
10482;BME280;5288;42.334;23.876;2022-12-18T05:08:18;56585.03;;;-140.56;75.96
10482;BME280;5288;42.334;23.876;2022-12-18T05:10:45;56592.94;;;-140.56;75.09
10482;BME280;5288;42.334;23.876;2022-12-18T05:13:12;56598.84;;;-140.56;75.16
10482;BME280;5288;42.334;23.876;2022-12-18T05:15:39;56598.84;;;-140.56;74.70
10482;BME280;5288;42.334;23.876;2022-12-18T05:18:07;56618.63;;;-140.56;74.90
10482;BME280;5288;42.334;23.876;2022-12-18T05:20:34;56583.03;;;-140.56;74.18
10482;BME280;5288;42.334;23.876;2022-12-18T05:23:01;56610.72;;;-140.56;74.43
10482;BME280;5288;42.334;23.876;2022-12-18T05:25:29;56569.22;;;-140.56;74.30
10482;BME280;5288;42.334;23.876;2022-12-18T05:27:56;56596.88;;;-140.56;74.27
10482;BME280;5288;42.334;23.876;2022-12-18T05:30:23;56579.09;;;-140.56;73.59
10482;BME280;5288;42.334;23.876;2022-12-18T05:32:50;56585.03;;;-140.56;73.77
10482;BME280;5288;42.334;23.876;2022-12-18T05:35:17;56571.19;;;-140.56;73.85
10482;BME280;5288;42.334;23.876;2022-12-18T05:37:44;56612.69;;;-140.56;73.41
10482;BME280;5288;42.334;23.876;2022-12-18T05:40:11;56588.97;;;-140.56;73.30
10482;BME280;5288;42.334;23.876;2022-12-18T05:42:40;56573.16;;;-140.56;73.45
10482;BME280;5288;42.334;23.876;2022-12-18T05:45:07;56547.47;;;-140.56;73.23
10482;BME280;5288;42.334;23.876;2022-12-18T05:47:34;56567.22;;;-140.56;73.39
10482;BME280;5288;42.334;23.876;2022-12-18T05:50:01;56587.00;;;-140.56;73.35
10482;BME280;5288;42.334;23.876;2022-12-18T05:52:28;56604.78;;;-140.56;72.80
10482;BME280;5288;42.334;23.876;2022-12-18T05:54:56;56577.13;;;-140.56;72.45
10482;BME280;5288;42.334;23.876;2022-12-18T05:57:24;56626.53;;;-140.56;73.25
10482;BME280;5288;42.334;23.876;2022-12-18T05:59:53;56594.91;;;-140.56;73.70
10482;BME280;5288;42.334;23.876;2022-12-18T06:02:19;56559.31;;;-140.56;74.40
10482;BME280;5288;42.334;23.876;2022-12-18T06:04:47;56561.31;;;-140.56;74.40
10482;BME280;5288;42.334;23.876;2022-12-18T06:07:14;56581.06;;;-140.56;74.01
10482;BME280;5288;42.334;23.876;2022-12-18T06:09:41;56575.13;;;-140.56;73.85
10482;BME280;5288;42.334;23.876;2022-12-18T06:12:08;56577.13;;;-140.56;73.97
10482;BME280;5288;42.334;23.876;2022-12-18T06:14:35;56624.56;;;-140.56;73.48
10482;BME280;5288;42.334;23.876;2022-12-18T06:17:03;56616.66;;;-140.56;73.09
10482;BME280;5288;42.334;23.876;2022-12-18T06:19:30;56579.09;;;-140.56;72.96
10482;BME280;5288;42.334;23.876;2022-12-18T06:21:57;56596.88;;;-140.56;72.90
10482;BME280;5288;42.334;23.876;2022-12-18T06:24:24;56575.13;;;-140.56;73.28
10482;BME280;5288;42.334;23.876;2022-12-18T06:26:51;56604.78;;;-140.56;73.74
10482;BME280;5288;42.334;23.876;2022-12-18T06:29:18;56600.84;;;-140.56;73.87
10482;BME280;5288;42.334;23.876;2022-12-18T06:31:45;56581.06;;;-140.56;74.15
10482;BME280;5288;42.334;23.876;2022-12-18T06:34:13;56585.03;;;-140.56;74.39
10482;BME280;5288;42.334;23.876;2022-12-18T06:36:40;56604.78;;;-140.56;73.90
10482;BME280;5288;42.334;23.876;2022-12-18T06:39:07;56583.03;;;-140.56;73.86
10482;BME280;5288;42.334;23.876;2022-12-18T06:41:34;56563.28;;;-140.56;73.97
10482;BME280;5288;42.334;23.876;2022-12-18T06:44:01;56587.00;;;-140.56;73.73
10482;BME280;5288;42.334;23.876;2022-12-18T06:46:28;56575.13;;;-140.56;73.37
10482;BME280;5288;42.334;23.876;2022-12-18T06:48:55;56587.00;;;-140.56;73.22
10482;BME280;5288;42.334;23.876;2022-12-18T06:51:24;56583.03;;;-140.56;73.20
10482;BME280;5288;42.334;23.876;2022-12-18T06:53:50;56598.84;;;-140.56;73.13
10482;BME280;5288;42.334;23.876;2022-12-18T06:56:17;56624.56;;;-140.56;72.75
10482;BME280;5288;42.334;23.876;2022-12-18T06:58:44;56604.78;;;-140.56;73.17
10482;BME280;5288;42.334;23.876;2022-12-18T07:01:12;56596.88;;;-140.56;73.38
10482;BME280;5288;42.334;23.876;2022-12-18T07:03:40;56622.56;;;-140.56;72.96
10482;BME280;5288;42.334;23.876;2022-12-18T07:06:13;56626.53;;;-140.56;72.83
10482;BME280;5288;42.334;23.876;2022-12-18T07:08:42;56604.78;;;-140.56;72.19
10482;BME280;5288;42.334;23.876;2022-12-18T07:11:09;56587.00;;;-140.56;72.40
10482;BME280;5288;42.334;23.876;2022-12-18T07:13:36;56622.56;;;-140.56;72.13
10482;BME280;5288;42.334;23.876;2022-12-18T07:16:05;56587.00;;;-140.56;71.48
10482;BME280;5288;42.334;23.876;2022-12-18T07:18:32;56636.41;;;-140.56;71.33
10482;BME280;5288;42.334;23.876;2022-12-18T07:21:03;56600.84;;;-140.56;70.88
10482;BME280;5288;42.334;23.876;2022-12-18T07:23:30;56600.84;;;-140.56;70.95
10482;BME280;5288;42.334;23.876;2022-12-18T07:26:02;56592.94;;;-140.56;71.71
10482;BME280;5288;42.334;23.876;2022-12-18T07:28:30;56592.94;;;-140.56;71.31
10482;BME280;5288;42.334;23.876;2022-12-18T07:30:57;56571.19;;;-140.56;71.55
10482;BME280;5288;42.334;23.876;2022-12-18T07:33:25;56606.75;;;-140.56;71.43
10482;BME280;5288;42.334;23.876;2022-12-18T07:35:52;56606.75;;;-140.56;71.05
10482;BME280;5288;42.334;23.876;2022-12-18T07:38:19;56579.09;;;-140.56;71.15
10482;BME280;5288;42.334;23.876;2022-12-18T07:40:46;56600.84;;;-140.56;69.91
10482;BME280;5288;42.334;23.876;2022-12-18T07:43:15;56604.78;;;-140.56;70.45
10482;BME280;5288;42.334;23.876;2022-12-18T07:45:42;56587.00;;;-140.56;70.16
10482;BME280;5288;42.334;23.876;2022-12-18T07:48:09;56618.63;;;-140.56;69.81
10482;BME280;5288;42.334;23.876;2022-12-18T07:50:36;56594.91;;;-140.56;69.68
10482;BME280;5288;42.334;23.876;2022-12-18T07:53:03;56588.97;;;-140.56;69.47
10482;BME280;5288;42.334;23.876;2022-12-18T07:55:31;56600.84;;;-140.56;69.93
10482;BME280;5288;42.334;23.876;2022-12-18T07:58:00;56559.31;;;-140.56;70.03
10482;BME280;5288;42.334;23.876;2022-12-18T08:00:29;56579.09;;;-140.56;70.11
10482;BME280;5288;42.334;23.876;2022-12-18T08:02:56;56616.66;;;-140.56;70.28
10482;BME280;5288;42.334;23.876;2022-12-18T08:05:23;56606.75;;;-140.56;70.52
10482;BME280;5288;42.334;23.876;2022-12-18T08:07:50;56579.09;;;-140.56;70.33
10482;BME280;5288;42.334;23.876;2022-12-18T08:10:17;56590.94;;;-140.56;70.38
10482;BME280;5288;42.334;23.876;2022-12-18T08:12:44;56583.03;;;-140.56;69.73
10482;BME280;5288;42.334;23.876;2022-12-18T08:15:11;56592.94;;;-140.56;70.13
10482;BME280;5288;42.334;23.876;2022-12-18T08:17:40;56608.75;;;-140.56;70.33
10482;BME280;5288;42.334;23.876;2022-12-18T08:20:08;56592.94;;;-140.56;70.26
10482;BME280;5288;42.334;23.876;2022-12-18T08:22:35;56604.78;;;-140.56;69.28
10482;BME280;5288;42.334;23.876;2022-12-18T08:25:06;56630.47;;;-140.56;69.36
10482;BME280;5288;42.334;23.876;2022-12-18T08:27:33;56594.91;;;-140.56;69.91
10482;BME280;5288;42.334;23.876;2022-12-18T08:30:00;56573.16;;;-140.56;69.76
10482;BME280;5288;42.334;23.876;2022-12-18T08:32:27;56587.00;;;-140.56;69.75
10482;BME280;5288;42.334;23.876;2022-12-18T08:34:56;56588.97;;;-140.56;69.48
10482;BME280;5288;42.334;23.876;2022-12-18T08:37:23;56581.06;;;-140.56;68.86
10482;BME280;5288;42.334;23.876;2022-12-18T08:42:35;56509.91;;;-140.56;68.50
10482;BME280;5288;42.334;23.876;2022-12-18T08:45:19;56567.22;;;-140.56;68.21
10482;BME280;5288;42.334;23.876;2022-12-18T08:47:46;56588.97;;;-140.56;67.78
10482;BME280;5288;42.334;23.876;2022-12-18T08:50:14;56596.88;;;-140.56;68.10
10482;BME280;5288;42.334;23.876;2022-12-18T08:52:41;56543.50;;;-140.56;68.18
10482;BME280;5288;42.334;23.876;2022-12-18T08:55:09;56567.22;;;-140.56;67.85
10482;BME280;5288;42.334;23.876;2022-12-18T08:57:36;56590.94;;;-140.56;67.38
10482;BME280;5288;42.334;23.876;2022-12-18T09:00:03;56565.25;;;-140.56;68.13
10482;BME280;5288;42.334;23.876;2022-12-18T09:02:30;56545.50;;;-140.56;68.13
10482;BME280;5288;42.334;23.876;2022-12-18T09:04:57;56577.13;;;-140.56;67.08
10482;BME280;5288;42.334;23.876;2022-12-18T09:07:25;56557.34;;;-140.56;67.25
10482;BME280;5288;42.334;23.876;2022-12-18T09:09:52;56583.03;;;-140.56;67.32
10482;BME280;5288;42.334;23.876;2022-12-18T09:12:19;56507.94;;;-140.56;67.34
10482;BME280;5288;42.334;23.876;2022-12-18T09:14:46;56539.56;;;-140.56;67.88
10482;BME280;5288;42.334;23.876;2022-12-18T09:17:13;56561.31;;;-140.56;66.80
10482;BME280;5288;42.334;23.876;2022-12-18T09:19:40;56579.09;;;-140.56;66.02
10482;BME280;5288;42.334;23.876;2022-12-18T09:22:07;56571.19;;;-140.56;66.45
10482;BME280;5288;42.334;23.876;2022-12-18T09:24:36;56535.59;;;-140.56;66.70
10482;BME280;5288;42.334;23.876;2022-12-18T09:27:03;56575.13;;;-140.56;66.46
10482;BME280;5288;42.334;23.876;2022-12-18T09:29:30;56585.03;;;-140.56;66.86
10482;BME280;5288;42.334;23.876;2022-12-18T09:31:57;56587.00;;;-140.56;66.38
10482;BME280;5288;42.334;23.876;2022-12-18T09:34:24;56569.22;;;-140.56;66.47
10482;BME280;5288;42.334;23.876;2022-12-18T09:36:51;56583.03;;;-140.56;65.92
10482;BME280;5288;42.334;23.876;2022-12-18T09:39:18;56583.03;;;-140.56;65.92
10482;BME280;5288;42.334;23.876;2022-12-18T09:41:47;56587.00;;;-140.56;66.90
10482;BME280;5288;42.334;23.876;2022-12-18T09:44:23;56555.38;;;-140.56;67.18
10482;BME280;5288;42.334;23.876;2022-12-18T09:46:57;56571.19;;;-140.56;66.57
10482;BME280;5288;42.334;23.876;2022-12-18T09:49:29;56577.13;;;-140.56;66.27
10482;BME280;5288;42.334;23.876;2022-12-18T09:52:00;56567.22;;;-140.56;66.69
10482;BME280;5288;42.334;23.876;2022-12-18T09:54:33;56539.56;;;-140.56;66.76
10482;BME280;5288;42.334;23.876;2022-12-18T09:57:04;56575.13;;;-140.56;65.94
10482;BME280;5288;42.334;23.876;2022-12-18T09:59:34;56583.03;;;-140.56;66.44
10482;BME280;5288;42.334;23.876;2022-12-18T10:02:15;56539.56;;;-140.56;66.80
10482;BME280;5288;42.334;23.876;2022-12-18T10:04:43;56579.09;;;-140.56;66.81
10482;BME280;5288;42.334;23.876;2022-12-18T10:07:15;56575.13;;;-140.56;66.45
10482;BME280;5288;42.334;23.876;2022-12-18T10:09:49;56565.25;;;-140.56;66.40
10482;BME280;5288;42.334;23.876;2022-12-18T10:12:24;56551.41;;;-140.56;66.23
10482;BME280;5288;42.334;23.876;2022-12-18T10:15:01;56587.00;;;-140.56;66.92
10482;BME280;5288;42.334;23.876;2022-12-18T10:17:36;56575.13;;;-140.56;66.63
10482;BME280;5288;42.334;23.876;2022-12-18T10:20:13;56555.38;;;-140.56;66.67
10482;BME280;5288;42.334;23.876;2022-12-18T10:22:50;56547.47;;;-140.56;66.47
10482;BME280;5288;42.334;23.876;2022-12-18T10:25:23;56579.09;;;-140.56;66.40
10482;BME280;5288;42.334;23.876;2022-12-18T10:27:56;56555.38;;;-140.56;66.63
10482;BME280;5288;42.334;23.876;2022-12-18T10:30:25;56596.88;;;-140.56;67.39
10482;BME280;5288;42.334;23.876;2022-12-18T10:32:52;56581.06;;;-140.56;67.92
10482;BME280;5288;42.334;23.876;2022-12-18T10:35:23;56555.38;;;-140.56;67.35
10482;BME280;5288;42.334;23.876;2022-12-18T10:38:07;56585.03;;;-140.56;67.05
10482;BME280;5288;42.334;23.876;2022-12-18T10:40:52;56579.09;;;-140.56;66.82
10482;BME280;5288;42.334;23.876;2022-12-18T10:43:23;56571.19;;;-140.56;66.92
10482;BME280;5288;42.334;23.876;2022-12-18T10:46:02;56573.16;;;-140.56;67.31
10482;BME280;5288;42.334;23.876;2022-12-18T10:48:31;56565.25;;;-140.56;66.60
10482;BME280;5288;42.334;23.876;2022-12-18T10:51:00;56553.41;;;-140.56;66.07
10482;BME280;5288;42.334;23.876;2022-12-18T10:53:29;56565.25;;;-140.56;65.56
10482;BME280;5288;42.334;23.876;2022-12-18T10:55:58;56559.31;;;-140.56;66.11
10482;BME280;5288;42.334;23.876;2022-12-18T10:58:30;56547.47;;;-140.56;66.00
10482;BME280;5288;42.334;23.876;2022-12-18T11:01:04;56575.13;;;-140.56;66.22
10482;BME280;5288;42.334;23.876;2022-12-18T11:03:33;56557.34;;;-140.56;65.87
10482;BME280;5288;42.334;23.876;2022-12-18T11:06:03;56541.53;;;-140.56;65.54
10482;BME280;5288;42.334;23.876;2022-12-18T11:08:31;56553.41;;;-140.56;66.10
10482;BME280;5288;42.334;23.876;2022-12-18T11:10:58;56539.56;;;-140.56;65.15
10482;BME280;5288;42.334;23.876;2022-12-18T11:13:27;56563.28;;;-140.56;65.15
10482;BME280;5288;42.334;23.876;2022-12-18T11:15:56;56559.31;;;-140.56;64.78
10482;BME280;5288;42.334;23.876;2022-12-18T11:18:26;56553.41;;;-140.56;64.62
10482;BME280;5288;42.334;23.876;2022-12-18T11:20:55;56547.47;;;-140.56;64.59
10482;BME280;5288;42.334;23.876;2022-12-18T11:23:23;56533.63;;;-140.56;64.20
10482;BME280;5288;42.334;23.876;2022-12-18T11:25:53;56535.59;;;-140.56;64.90
10482;BME280;5288;42.334;23.876;2022-12-18T11:28:37;56579.09;;;-140.56;64.78
10482;BME280;5288;42.334;23.876;2022-12-18T11:31:16;56579.09;;;-140.56;64.71
10482;BME280;5288;42.334;23.876;2022-12-18T11:33:46;56567.22;;;-140.56;64.67
10482;BME280;5288;42.334;23.876;2022-12-18T11:36:16;56567.22;;;-140.56;65.62
10482;BME280;5288;42.334;23.876;2022-12-18T11:38:44;56547.47;;;-140.56;65.14
10482;BME280;5288;42.334;23.876;2022-12-18T11:41:19;56547.47;;;-140.56;65.46
10482;BME280;5288;42.334;23.876;2022-12-18T11:43:50;56577.13;;;-140.56;65.08
10482;BME280;5288;42.334;23.876;2022-12-18T11:46:30;56559.31;;;-140.56;64.84
10482;BME280;5288;42.334;23.876;2022-12-18T11:49:06;56545.50;;;-140.56;64.39
10482;BME280;5288;42.334;23.876;2022-12-18T11:51:38;56555.38;;;-140.56;64.17
10482;BME280;5288;42.334;23.876;2022-12-18T11:54:12;56543.50;;;-140.56;64.14
10482;BME280;5288;42.334;23.876;2022-12-18T11:56:44;56551.41;;;-140.56;64.23
10482;BME280;5288;42.334;23.876;2022-12-18T11:59:20;56565.25;;;-140.56;64.34
10482;BME280;5288;42.334;23.876;2022-12-18T12:01:57;56563.28;;;-140.56;63.78
10482;BME280;5288;42.334;23.876;2022-12-18T12:07:30;56569.22;;;-140.56;64.65
10482;BME280;5288;42.334;23.876;2022-12-18T12:10:05;56527.72;;;-140.56;64.26
10482;BME280;5288;42.334;23.876;2022-12-18T12:12:43;56575.13;;;-140.56;63.91
10482;BME280;5288;42.334;23.876;2022-12-18T12:15:20;56561.31;;;-140.56;64.77
10482;BME280;5288;42.334;23.876;2022-12-18T12:17:55;56559.31;;;-140.56;64.21
10482;BME280;5288;42.334;23.876;2022-12-18T12:20:30;56537.59;;;-140.56;63.65
10482;BME280;5288;42.334;23.876;2022-12-18T12:23:12;56553.41;;;-140.56;64.21
10482;BME280;5288;42.334;23.876;2022-12-18T12:25:46;56606.75;;;-140.56;63.53
10482;BME280;5288;42.334;23.876;2022-12-18T12:28:30;56585.03;;;-140.56;64.41
10482;BME280;5288;42.334;23.876;2022-12-18T12:31:05;56575.13;;;-140.56;65.42
10482;BME280;5288;42.334;23.876;2022-12-18T12:33:42;56561.31;;;-140.56;64.77
10482;BME280;5288;42.334;23.876;2022-12-18T12:36:20;56559.31;;;-140.56;64.48
10482;BME280;5288;42.334;23.876;2022-12-18T12:38:55;56585.03;;;-140.56;64.67
10482;BME280;5288;42.334;23.876;2022-12-18T12:41:26;56573.16;;;-140.56;64.55
10482;BME280;5288;42.334;23.876;2022-12-18T12:44:15;56569.22;;;-140.56;64.71
10482;BME280;5288;42.334;23.876;2022-12-18T12:46:44;56606.75;;;-140.56;64.68
10482;BME280;5288;42.334;23.876;2022-12-18T12:49:15;56594.91;;;-140.56;64.51
10482;BME280;5288;42.334;23.876;2022-12-18T12:51:47;56551.41;;;-140.56;64.24
10482;BME280;5288;42.334;23.876;2022-12-18T12:54:22;56563.28;;;-140.56;64.13
10482;BME280;5288;42.334;23.876;2022-12-18T12:56:54;56563.28;;;-140.56;64.59
10482;BME280;5288;42.334;23.876;2022-12-18T12:59:31;56543.50;;;-140.56;64.76